Jacksonville, Georgia
Current Conditions -  °F | °C
As of 6:15 PM on Friday 19 Dec 2014 (Local Time) from KFZG Reporting Station
Scattered Clouds Scattered Clouds  
Wind Chill: 55°   Ceiling: Unl
Heat Index: 55°   Visibility: 10mi
Dew Point: 38°   Wind: 0mph
Humidity: 54%   Direction: NA
Pressure: 30.1"   Gusts: NA
Location:  31.81°N, 82.98°W
Report Text: KFZG 192315Z AUTO 00000KT 10SM SCT120 13/04 A3010 RMK AO2 T01250035
Loading
Personal Weather Stations






























Interactive Weather Map New forecast layout! Learn more

10-Day Weather Forecast

Advertisements
Track Severe Weather on mobile